Time;durP1;ratioP1;P1;durP2;ratioP2;P2;SDS_P1;SDS_P2;PMS_P1;PMS_P2;Temp;Humidity;BMP_temperature;BMP_pressure;BME280_temperature;BME280_humidity;BME280_pressure;Samples;Min_cycle;Max_cycle;Signal;HPM_P1;HPM_P2
2022/09/21 00:02:19;;;;;;;34.43;4.87;;;;;;;;;;6103131;23;20665;-91
2022/09/21 00:05:24;;;;;;;22.13;4.67;;;;;;;;;;6103732;23;20258;-92
2022/09/21 00:08:30;;;;;;;14.20;4.00;;;;;;;;;;6104773;23;20604;-88
2022/09/21 00:11:36;;;;;;;39.47;5.17;;;;;;;;;;6108522;23;20157;-89
2022/09/21 00:14:41;;;;;;;23.93;5.13;;;;;;;;;;6107108;23;20519;-90
2022/09/21 00:17:47;;;;;;;35.13;5.80;;;;;;;;;;6106459;23;20213;-89
2022/09/21 00:20:52;;;;;;;17.77;5.87;;;;;;;;;;6106139;23;20197;-90
2022/09/21 00:23:59;;;;;;;17.42;5.47;;;;;;;;;;6107070;23;20166;-88
2022/09/21 00:27:04;;;;;;;8.15;4.53;;;;;;;;;;6106109;23;20162;-90
2022/09/21 00:30:10;;;;;;;6.30;4.10;;;;;;;;;;6106672;23;20169;-88
2022/09/21 00:33:15;;;;;;;29.98;4.90;;;;;;;;;;6105555;23;20618;-89
2022/09/21 00:36:21;;;;;;;9.20;4.33;;;;;;;;;;6104979;23;20174;-89
2022/09/21 00:39:28;;;;;;;7.70;4.60;;;;;;;;;;6104203;23;20173;-91
2022/09/21 00:42:34;;;;;;;9.27;4.83;;;;;;;;;;6103268;23;20231;-89
2022/09/21 00:45:39;;;;;;;12.60;4.97;;;;;;;;;;6104878;23;20166;-89
2022/09/21 00:48:45;;;;;;;9.27;5.00;;;;;;;;;;6104591;23;20505;-91
2022/09/21 00:51:52;;;;;;;7.80;4.80;;;;;;;;;;6102805;23;20596;-91
2022/09/21 00:55:00;;;;;;;17.43;4.73;;;;;;;;;;6104610;23;20253;-88
2022/09/21 00:58:08;;;;;;;8.67;4.50;;;;;;;;;;6102405;23;20221;-88
2022/09/21 01:01:16;;;;;;;20.27;5.03;;;;;;;;;;6104531;23;20249;-89
2022/09/21 01:04:22;;;;;;;10.97;4.37;;;;;;;;;;6104143;23;20653;-90
2022/09/21 01:07:28;;;;;;;16.10;4.93;;;;;;;;;;6105144;23;20253;-90
2022/09/21 01:10:42;;;;;;;22.17;5.00;;;;;;;;;;6103833;23;20165;-89
2022/09/21 01:13:52;;;;;;;26.93;5.23;;;;;;;;;;6102138;23;20169;-88
2022/09/21 01:17:03;;;;;;;11.93;5.10;;;;;;;;;;6106544;23;20174;-91
2022/09/21 01:20:30;;;;;;;9.67;4.80;;;;;;;;;;6088342;23;20172;-90
2022/09/21 01:23:48;;;;;;;8.83;4.87;;;;;;;;;;6087955;23;20250;-92
2022/09/21 01:27:11;;;;;;;11.13;4.93;;;;;;;;;;6087872;23;20168;-90
2022/09/21 01:30:18;;;;;;;7.53;4.50;;;;;;;;;;6107587;23;20185;-91
2022/09/21 01:33:25;;;;;;;7.47;4.10;;;;;;;;;;6089783;23;20173;-90
2022/09/21 01:36:32;;;;;;;22.73;4.97;;;;;;;;;;6087848;23;20193;-90
2022/09/21 01:39:38;;;;;;;12.03;5.37;;;;;;;;;;6085935;23;20170;-90
2022/09/21 01:42:44;;;;;;;10.23;5.50;;;;;;;;;;6087715;23;20205;-92
2022/09/21 01:45:53;;;;;;;10.80;5.47;;;;;;;;;;6088026;23;20173;-88
2022/09/21 01:49:02;;;;;;;11.27;5.85;;;;;;;;;;6088407;23;20174;-89
2022/09/21 01:52:11;;;;;;;16.97;5.97;;;;;;;;;;6089116;23;20256;-89
2022/09/21 01:55:19;;;;;;;12.80;5.63;;;;;;;;;;6088086;23;20170;-91
2022/09/21 01:58:27;;;;;;;20.67;5.53;;;;;;;;;;6089441;23;20178;-91
2022/09/21 02:01:36;;;;;;;13.40;5.77;;;;;;;;;;6089327;23;20301;-90
2022/09/21 02:04:41;;;;;;;29.40;6.40;;;;;;;;;;6090127;23;20173;-90
2022/09/21 02:07:47;;;;;;;23.93;6.27;;;;;;;;;;6088515;23;20190;-89
2022/09/21 02:10:52;;;;;;;10.97;6.20;;;;;;;;;;6088902;23;20264;-91
2022/09/21 02:13:57;;;;;;;12.83;5.87;;;;;;;;;;6087542;23;20182;-89
2022/09/21 02:17:06;;;;;;;12.20;5.77;;;;;;;;;;6089506;23;20193;-87
2022/09/21 02:20:17;;;;;;;10.87;4.57;;;;;;;;;;6106008;23;20187;-91
2022/09/21 02:23:24;;;;;;;10.40;4.70;;;;;;;;;;6103850;23;20557;-90
2022/09/21 02:26:33;;;;;;;44.53;4.90;;;;;;;;;;6106174;23;20166;-90
2022/09/21 02:29:46;;;;;;;20.57;5.20;;;;;;;;;;6106168;23;20243;-90
2022/09/21 02:32:56;;;;;;;14.97;4.90;;;;;;;;;;6104954;23;20602;-91
2022/09/21 02:36:06;;;;;;;11.70;5.67;;;;;;;;;;6105474;23;20503;-90
2022/09/21 02:39:14;;;;;;;10.87;5.27;;;;;;;;;;6104948;23;20166;-90
2022/09/21 02:42:22;;;;;;;31.63;5.53;;;;;;;;;;6107013;23;20274;-87
2022/09/21 02:45:33;;;;;;;19.73;5.63;;;;;;;;;;6107101;23;20246;-92
2022/09/21 02:48:41;;;;;;;12.63;5.63;;;;;;;;;;6106526;23;20170;-89
2022/09/21 02:51:47;;;;;;;14.90;5.83;;;;;;;;;;6106947;23;20231;-90
2022/09/21 02:54:53;;;;;;;12.23;6.37;;;;;;;;;;6105722;23;20185;-90
2022/09/21 02:57:59;;;;;;;28.63;6.07;;;;;;;;;;6106495;23;20290;-87
2022/09/21 03:01:06;;;;;;;15.67;5.60;;;;;;;;;;6104818;23;20174;-90
2022/09/21 03:04:13;;;;;;;20.47;6.37;;;;;;;;;;6106249;23;20174;-93
2022/09/21 03:07:18;;;;;;;8.27;4.93;;;;;;;;;;6106392;23;20177;-90
2022/09/21 03:10:24;;;;;;;11.67;5.00;;;;;;;;;;6105023;23;20170;-91
2022/09/21 03:13:29;;;;;;;14.33;4.90;;;;;;;;;;6106207;23;20174;-88
2022/09/21 03:16:39;;;;;;;8.50;4.47;;;;;;;;;;6108581;23;20173;-90
2022/09/21 03:19:46;;;;;;;8.37;4.83;;;;;;;;;;6105545;23;20185;-90
2022/09/21 03:22:51;;;;;;;14.33;4.73;;;;;;;;;;6105350;23;20224;-91
2022/09/21 03:25:55;;;;;;;15.43;4.23;;;;;;;;;;6106106;23;20606;-89
2022/09/21 03:29:00;;;;;;;8.43;4.30;;;;;;;;;;6104412;23;20637;-90
2022/09/21 03:32:05;;;;;;;10.00;4.83;;;;;;;;;;6105635;23;20173;-89
2022/09/21 03:35:12;;;;;;;9.43;5.37;;;;;;;;;;6104373;23;20231;-90
2022/09/21 03:38:18;;;;;;;9.17;4.60;;;;;;;;;;6107753;23;20283;-90
2022/09/21 03:41:23;;;;;;;9.33;4.57;;;;;;;;;;6105710;23;20249;-90
2022/09/21 03:44:28;;;;;;;10.27;4.50;;;;;;;;;;6104666;23;20177;-88
2022/09/21 03:47:34;;;;;;;13.47;4.47;;;;;;;;;;6105751;23;20198;-90
2022/09/21 03:50:40;;;;;;;23.93;4.27;;;;;;;;;;6105499;23;20189;-87
2022/09/21 03:53:45;;;;;;;16.87;4.73;;;;;;;;;;6104912;23;20629;-87
2022/09/21 03:56:50;;;;;;;10.17;4.43;;;;;;;;;;6105653;23;20258;-90
2022/09/21 03:59:55;;;;;;;7.43;4.17;;;;;;;;;;6105717;23;20177;-88
2022/09/21 04:03:00;;;;;;;10.67;4.63;;;;;;;;;;6105657;23;20918;-86
2022/09/21 04:06:10;;;;;;;8.13;4.30;;;;;;;;;;6105147;23;20174;-88
2022/09/21 04:09:16;;;;;;;22.07;4.43;;;;;;;;;;6106084;23;20161;-89
2022/09/21 04:12:24;;;;;;;7.30;4.33;;;;;;;;;;6106969;23;20202;-90
2022/09/21 04:15:30;;;;;;;9.77;4.17;;;;;;;;;;6107926;23;20178;-88
2022/09/21 04:18:35;;;;;;;33.00;4.83;;;;;;;;;;6106174;23;20656;-87
2022/09/21 04:21:41;;;;;;;7.93;3.90;;;;;;;;;;6106820;23;20214;-87
2022/09/21 04:24:46;;;;;;;34.77;4.60;;;;;;;;;;6106683;23;20161;-88
2022/09/21 04:27:51;;;;;;;8.53;3.97;;;;;;;;;;6106558;23;20630;-91
2022/09/21 04:30:56;;;;;;;11.90;4.00;;;;;;;;;;6105814;23;20230;-90
2022/09/21 04:34:01;;;;;;;7.13;4.00;;;;;;;;;;6104491;23;20174;-88
2022/09/21 04:37:09;;;;;;;12.33;4.23;;;;;;;;;;6105849;23;20242;-90
2022/09/21 04:40:16;;;;;;;9.53;4.23;;;;;;;;;;6104798;23;20184;-90
2022/09/21 04:43:21;;;;;;;7.50;3.93;;;;;;;;;;6104335;23;20200;-88
2022/09/21 04:46:26;;;;;;;5.27;3.30;;;;;;;;;;6104901;23;20173;-88
2022/09/21 04:49:31;;;;;;;6.90;3.43;;;;;;;;;;6106401;23;20174;-87
2022/09/21 04:52:38;;;;;;;10.77;4.50;;;;;;;;;;6105215;23;20564;-88
2022/09/21 04:55:43;;;;;;;10.23;3.43;;;;;;;;;;6103526;23;20706;-90
2022/09/21 04:58:48;;;;;;;16.63;3.67;;;;;;;;;;6104932;23;20168;-91
2022/09/21 05:01:54;;;;;;;12.10;4.00;;;;;;;;;;6104429;23;20170;-87
2022/09/21 05:04:59;;;;;;;6.33;4.10;;;;;;;;;;6104984;23;20170;-88
2022/09/21 05:08:05;;;;;;;6.77;4.20;;;;;;;;;;6103266;23;20173;-88
2022/09/21 05:11:11;;;;;;;7.00;4.10;;;;;;;;;;6104196;23;20266;-88
2022/09/21 05:14:17;;;;;;;10.87;4.67;;;;;;;;;;6105646;23;20665;-90
2022/09/21 05:17:22;;;;;;;7.90;4.37;;;;;;;;;;6103339;23;20270;-87
2022/09/21 05:20:27;;;;;;;11.27;5.20;;;;;;;;;;6105673;23;20170;-88
2022/09/21 05:23:33;;;;;;;8.37;4.53;;;;;;;;;;6104172;23;20201;-89
2022/09/21 05:26:38;;;;;;;34.37;4.63;;;;;;;;;;6106759;23;20177;-88
2022/09/21 05:29:44;;;;;;;16.80;5.17;;;;;;;;;;6104931;23;20272;-90
2022/09/21 05:32:50;;;;;;;14.80;5.20;;;;;;;;;;6107687;23;20217;-90
2022/09/21 05:35:59;;;;;;;8.80;5.00;;;;;;;;;;6104695;23;20242;-88
2022/09/21 05:39:07;;;;;;;7.37;4.37;;;;;;;;;;6107768;23;20210;-88
2022/09/21 05:42:12;;;;;;;20.60;4.90;;;;;;;;;;6107648;23;20230;-88
2022/09/21 05:45:19;;;;;;;11.83;4.40;;;;;;;;;;6104511;23;20629;-89
2022/09/21 05:48:28;;;;;;;36.93;4.47;;;;;;;;;;6107719;23;20162;-91
2022/09/21 05:51:37;;;;;;;7.07;3.70;;;;;;;;;;6107015;23;20186;-90
2022/09/21 05:54:50;;;;;;;7.73;4.13;;;;;;;;;;6105252;23;20295;-89
2022/09/21 05:58:00;;;;;;;8.10;4.47;;;;;;;;;;6105633;23;20182;-90
2022/09/21 06:01:14;;;;;;;12.53;4.43;;;;;;;;;;6105817;23;20177;-87
2022/09/21 06:04:19;;;;;;;13.90;4.13;;;;;;;;;;6105658;23;20294;-90
2022/09/21 06:07:24;;;;;;;27.80;4.83;;;;;;;;;;6105913;23;20196;-88
2022/09/21 06:10:34;;;;;;;9.70;4.40;;;;;;;;;;6106319;23;20183;-89
2022/09/21 06:13:42;;;;;;;7.47;4.50;;;;;;;;;;6105986;23;20238;-90
2022/09/21 06:16:48;;;;;;;8.47;4.63;;;;;;;;;;6104784;23;20219;-88
2022/09/21 06:19:53;;;;;;;13.67;4.43;;;;;;;;;;6106364;23;20239;-89
2022/09/21 06:23:00;;;;;;;7.83;4.13;;;;;;;;;;6106295;23;20201;-89
2022/09/21 06:26:07;;;;;;;25.50;4.77;;;;;;;;;;6107147;23;20245;-90
2022/09/21 06:29:12;;;;;;;10.17;4.20;;;;;;;;;;6106328;23;20312;-89
2022/09/21 06:32:17;;;;;;;8.07;4.60;;;;;;;;;;6104424;23;20170;-91
2022/09/21 06:35:23;;;;;;;12.90;4.70;;;;;;;;;;6115651;23;20253;-89
2022/09/21 06:38:29;;;;;;;12.83;5.77;;;;;;;;;;6108587;23;20308;-90
2022/09/21 06:41:36;;;;;;;10.03;4.50;;;;;;;;;;6108748;23;20170;-89
2022/09/21 06:44:48;;;;;;;8.40;4.40;;;;;;;;;;6107444;23;20174;-89
2022/09/21 06:47:52;;;;;;;12.57;5.00;;;;;;;;;;6107796;23;20270;-87
2022/09/21 06:50:58;;;;;;;8.40;4.20;;;;;;;;;;6109901;23;20184;-89
2022/09/21 06:54:04;;;;;;;6.83;4.10;;;;;;;;;;6112755;23;20166;-88
2022/09/21 06:57:11;;;;;;;7.83;4.10;;;;;;;;;;6112440;23;20243;-87
2022/09/21 07:00:20;;;;;;;8.30;4.50;;;;;;;;;;6111942;23;20252;-89
2022/09/21 07:03:25;;;;;;;7.53;4.50;;;;;;;;;;6112261;23;20189;-89
2022/09/21 07:06:30;;;;;;;8.57;4.00;;;;;;;;;;6113787;23;20251;-87
2022/09/21 07:09:36;;;;;;;7.70;4.13;;;;;;;;;;6112218;23;20182;-89
2022/09/21 07:12:42;;;;;;;8.97;3.80;;;;;;;;;;6105515;23;20165;-90
2022/09/21 07:15:47;;;;;;;7.57;3.90;;;;;;;;;;6106054;23;20187;-88
2022/09/21 07:18:52;;;;;;;6.93;4.40;;;;;;;;;;6109089;23;20251;-91
2022/09/21 07:21:57;;;;;;;6.43;3.90;;;;;;;;;;6107866;23;20570;-88
2022/09/21 07:25:04;;;;;;;7.77;4.20;;;;;;;;;;6107518;23;20166;-87
2022/09/21 07:28:10;;;;;;;9.97;4.27;;;;;;;;;;6108039;23;20169;-88
2022/09/21 07:31:16;;;;;;;12.03;4.50;;;;;;;;;;6106312;23;20169;-89
2022/09/21 07:34:21;;;;;;;8.63;4.10;;;;;;;;;;6104717;23;20222;-87
2022/09/21 07:37:27;;;;;;;6.30;4.03;;;;;;;;;;6104667;23;20302;-88
2022/09/21 07:40:33;;;;;;;7.90;4.23;;;;;;;;;;6103618;23;20173;-88
2022/09/21 07:43:40;;;;;;;6.60;4.17;;;;;;;;;;6106998;23;20213;-89
2022/09/21 07:46:46;;;;;;;6.63;3.77;;;;;;;;;;6106253;23;20178;-90
2022/09/21 07:49:51;;;;;;;6.43;4.03;;;;;;;;;;6104435;23;20587;-90
2022/09/21 07:52:56;;;;;;;6.13;3.57;;;;;;;;;;6105643;23;20170;-88
2022/09/21 07:56:05;;;;;;;7.03;3.27;;;;;;;;;;6105238;23;20249;-90
2022/09/21 07:59:12;;;;;;;7.63;3.47;;;;;;;;;;6107044;23;20159;-90
2022/09/21 08:02:16;;;;;;;5.37;3.43;;;;;;;;;;6106910;23;20174;-88
2022/09/21 08:05:22;;;;;;;5.72;3.30;;;;;;;;;;6108496;23;20178;-88
2022/09/21 08:08:27;;;;;;;3.80;2.50;;;;;;;;;;6106764;23;20245;-88
2022/09/21 08:11:36;;;;;;;5.95;2.60;;;;;;;;;;6111495;23;20201;-89
2022/09/21 08:18:32;;;;;;;3.93;2.80;;;;;;;;;;6120290;23;20190;-87
2022/09/21 08:21:55;;;;;;;6.18;3.35;;;;;;;;;;6120523;23;20215;-90
2022/09/21 08:25:16;;;;;;;5.00;3.28;;;;;;;;;;6120444;23;20281;-87
2022/09/21 08:28:32;;;;;;;4.07;2.90;;;;;;;;;;6119316;23;20170;-90
2022/09/21 08:34:57;;;;;;;5.53;3.53;;;;;;;;;;6115936;23;20271;-89
2022/09/21 08:38:02;;;;;;;5.45;3.17;;;;;;;;;;6109479;23;20169;-91
2022/09/21 08:41:15;;;;;;;4.05;2.90;;;;;;;;;;6108443;23;20190;-91
2022/09/21 08:44:23;;;;;;;6.13;3.40;;;;;;;;;;6104980;23;20205;-89
2022/09/21 08:47:33;;;;;;;4.53;2.85;;;;;;;;;;6105082;23;20219;-91
2022/09/21 08:50:41;;;;;;;4.38;2.90;;;;;;;;;;6109092;23;20198;-89
2022/09/21 08:53:48;;;;;;;6.60;2.90;;;;;;;;;;6105127;23;20212;-90
2022/09/21 08:56:53;;;;;;;7.45;3.13;;;;;;;;;;6105238;23;20174;-89
2022/09/21 09:00:00;;;;;;;5.35;2.58;;;;;;;;;;6106332;23;20626;-90
2022/09/21 09:03:19;;;;;;;3.83;2.80;;;;;;;;;;6110496;23;20656;-88
2022/09/21 09:06:30;;;;;;;4.07;2.80;;;;;;;;;;6110601;23;20258;-89
2022/09/21 09:09:50;;;;;;;8.60;4.03;;;;;;;;;;6107221;23;20211;-90
2022/09/21 09:13:00;;;;;;;6.47;2.85;;;;;;;;;;6106041;23;20425;-87
2022/09/21 09:16:11;;;;;;;4.85;2.70;;;;;;;;;;6104027;23;20304;-89
2022/09/21 09:19:22;;;;;;;3.97;2.45;;;;;;;;;;6105550;23;20513;-88
2022/09/21 09:22:30;;;;;;;5.15;2.60;;;;;;;;;;6109556;23;20519;-87
2022/09/21 09:25:37;;;;;;;5.70;3.05;;;;;;;;;;6104437;23;20170;-89
2022/09/21 09:28:43;;;;;;;4.07;2.50;;;;;;;;;;6103427;23;20456;-90
2022/09/21 09:31:53;;;;;;;5.93;3.10;;;;;;;;;;6103717;23;20355;-88
2022/09/21 09:35:01;;;;;;;6.43;3.00;;;;;;;;;;6105161;23;20226;-90
2022/09/21 09:38:13;;;;;;;4.05;2.78;;;;;;;;;;6104703;23;20210;-88
2022/09/21 09:41:24;;;;;;;4.57;2.70;;;;;;;;;;6103807;23;20294;-89
2022/09/21 09:44:38;;;;;;;6.35;2.80;;;;;;;;;;6101804;23;20206;-90
2022/09/21 09:47:51;;;;;;;3.78;2.58;;;;;;;;;;6103429;23;20560;-89
2022/09/21 09:50:56;;;;;;;5.68;2.97;;;;;;;;;;6101509;23;20625;-91
2022/09/21 09:54:02;;;;;;;4.10;2.45;;;;;;;;;;6103827;23;20245;-90
2022/09/21 09:57:08;;;;;;;6.70;2.60;;;;;;;;;;6101705;23;20294;-89
2022/09/21 10:00:15;;;;;;;5.93;2.83;;;;;;;;;;6103910;23;20166;-91
2022/09/21 10:03:22;;;;;;;5.97;3.08;;;;;;;;;;6104216;23;20531;-88
2022/09/21 10:06:32;;;;;;;4.57;2.50;;;;;;;;;;6102992;23;20241;-89
2022/09/21 10:09:37;;;;;;;4.22;2.47;;;;;;;;;;6113037;23;20178;-88
2022/09/21 10:12:46;;;;;;;9.70;3.25;;;;;;;;;;6106642;23;20166;-88
2022/09/21 10:15:53;;;;;;;185.82;54.65;;;;;;;;;;6105439;23;20174;-88
2022/09/21 10:19:01;;;;;;;21.27;12.27;;;;;;;;;;6104696;23;20196;-89
2022/09/21 10:22:06;;;;;;;4.28;3.40;;;;;;;;;;6105015;23;20166;-91
2022/09/21 10:25:15;;;;;;;6.60;3.30;;;;;;;;;;6106267;23;20209;-90
2022/09/21 10:28:23;;;;;;;3.90;2.88;;;;;;;;;;6105721;23;20240;-89
2022/09/21 10:31:28;;;;;;;3.80;2.30;;;;;;;;;;6105510;23;20173;-89
2022/09/21 10:34:35;;;;;;;4.03;2.65;;;;;;;;;;6104442;23;20177;-88
2022/09/21 10:37:41;;;;;;;4.07;2.75;;;;;;;;;;6103781;23;20253;-90
2022/09/21 10:40:47;;;;;;;9.23;3.60;;;;;;;;;;6107096;23;20174;-90
2022/09/21 10:43:53;;;;;;;10.32;3.25;;;;;;;;;;6107936;23;20348;-90
2022/09/21 10:47:02;;;;;;;7.10;3.20;;;;;;;;;;6109620;23;20239;-89
2022/09/21 10:50:35;;;;;;;5.57;3.13;;;;;;;;;;6111967;23;20173;-85
2022/09/21 10:53:48;;;;;;;4.72;3.00;;;;;;;;;;6109040;23;20673;-90
2022/09/21 10:56:54;;;;;;;5.05;3.03;;;;;;;;;;6107686;23;20178;-88
2022/09/21 11:00:13;;;;;;;5.60;2.60;;;;;;;;;;6108877;23;20178;-89
2022/09/21 11:03:40;;;;;;;3.55;2.60;;;;;;;;;;6108726;23;20177;-89
2022/09/21 11:06:47;;;;;;;5.10;3.28;;;;;;;;;;6105303;23;20214;-90
2022/09/21 11:09:55;;;;;;;4.90;3.05;;;;;;;;;;6106649;23;20286;-91
2022/09/21 11:13:03;;;;;;;8.43;2.90;;;;;;;;;;6106020;23;20173;-87
2022/09/21 11:16:12;;;;;;;4.93;2.53;;;;;;;;;;6104059;23;20177;-91
2022/09/21 11:19:21;;;;;;;5.97;2.50;;;;;;;;;;6105178;23;20165;-89
2022/09/21 11:22:33;;;;;;;5.88;2.70;;;;;;;;;;6103444;23;20170;-89
2022/09/21 11:25:43;;;;;;;4.43;2.30;;;;;;;;;;6103883;23;20242;-91
2022/09/21 11:28:53;;;;;;;5.13;2.20;;;;;;;;;;6103869;23;20302;-89
2022/09/21 11:32:07;;;;;;;4.38;2.42;;;;;;;;;;6104552;23;20228;-90
2022/09/21 11:35:25;;;;;;;5.88;2.38;;;;;;;;;;6107663;23;20166;-88
2022/09/21 11:38:40;;;;;;;8.80;2.42;;;;;;;;;;6107646;23;20166;-91
2022/09/21 11:41:56;;;;;;;5.57;2.25;;;;;;;;;;6104657;23;20170;-89
2022/09/21 11:45:02;;;;;;;4.05;2.50;;;;;;;;;;6107273;23;20254;-90
2022/09/21 11:48:17;;;;;;;7.20;2.20;;;;;;;;;;6105540;23;20222;-90
2022/09/21 11:51:37;;;;;;;3.25;1.88;;;;;;;;;;6105740;23;20326;-89
2022/09/21 11:54:54;;;;;;;5.18;2.42;;;;;;;;;;6105581;23;20178;-88
2022/09/21 11:58:01;;;;;;;4.10;2.30;;;;;;;;;;6105837;23;20174;-87
2022/09/21 12:01:13;;;;;;;4.68;2.88;;;;;;;;;;6107585;23;20565;-88
2022/09/21 12:04:31;;;;;;;7.22;3.05;;;;;;;;;;6104583;23;20319;-89
2022/09/21 12:07:42;;;;;;;7.22;2.70;;;;;;;;;;6106743;23;20182;-88
2022/09/21 12:10:56;;;;;;;4.45;2.25;;;;;;;;;;6109228;23;20170;-89
2022/09/21 12:14:03;;;;;;;6.57;2.35;;;;;;;;;;6105037;23;20189;-89
2022/09/21 12:17:11;;;;;;;13.30;2.95;;;;;;;;;;6105121;23;20185;-88
2022/09/21 12:20:21;;;;;;;3.80;1.85;;;;;;;;;;6106279;23;20166;-89
2022/09/21 12:23:29;;;;;;;3.67;2.50;;;;;;;;;;6107372;23;20170;-91
2022/09/21 12:26:40;;;;;;;7.40;2.83;;;;;;;;;;6105681;23;20174;-90
2022/09/21 12:29:48;;;;;;;8.88;2.10;;;;;;;;;;6104855;23;20177;-90
2022/09/21 12:32:58;;;;;;;11.38;2.30;;;;;;;;;;6105554;23;20181;-89
2022/09/21 12:36:08;;;;;;;11.27;5.13;;;;;;;;;;6106393;23;20169;-88
2022/09/21 12:39:20;;;;;;;3.63;2.40;;;;;;;;;;6105146;23;20174;-91
2022/09/21 12:42:32;;;;;;;13.45;2.20;;;;;;;;;;6104228;23;20622;-88
2022/09/21 12:45:40;;;;;;;4.28;2.38;;;;;;;;;;6106053;23;20257;-88
2022/09/21 12:48:50;;;;;;;5.55;1.90;;;;;;;;;;6103633;23;20193;-89
2022/09/21 12:51:57;;;;;;;5.65;1.73;;;;;;;;;;6103883;23;20451;-90
2022/09/21 12:55:08;;;;;;;3.22;1.67;;;;;;;;;;6103819;23;20177;-88
2022/09/21 12:58:28;;;;;;;6.70;2.10;;;;;;;;;;6104796;23;20249;-89
2022/09/21 13:01:36;;;;;;;2.50;1.40;;;;;;;;;;6100973;23;20182;-90
2022/09/21 13:04:46;;;;;;;5.10;1.40;;;;;;;;;;6102537;23;20200;-90
2022/09/21 13:07:58;;;;;;;2.40;1.48;;;;;;;;;;6105409;23;20174;-90
2022/09/21 13:11:06;;;;;;;3.85;1.48;;;;;;;;;;6104818;23;20623;-90
2022/09/21 13:14:13;;;;;;;3.25;2.05;;;;;;;;;;6102234;23;20178;-90
2022/09/21 13:17:22;;;;;;;3.55;1.25;;;;;;;;;;6102306;23;20308;-89
2022/09/21 13:20:28;;;;;;;2.97;1.38;;;;;;;;;;6103767;23;20178;-89
2022/09/21 13:23:39;;;;;;;2.60;1.40;;;;;;;;;;6104115;23;20169;-90
2022/09/21 13:26:55;;;;;;;2.10;1.10;;;;;;;;;;6105629;23;20182;-91
2022/09/21 13:30:15;;;;;;;3.55;1.58;;;;;;;;;;6107234;23;20193;-90
2022/09/21 13:33:31;;;;;;;5.03;1.38;;;;;;;;;;6104763;23;20161;-89
2022/09/21 13:36:37;;;;;;;3.17;1.10;;;;;;;;;;6105373;23;20261;-89
2022/09/21 13:39:44;;;;;;;3.15;1.20;;;;;;;;;;6104533;23;20174;-89
2022/09/21 13:42:49;;;;;;;2.42;1.13;;;;;;;;;;6106094;23;20610;-90
2022/09/21 13:45:56;;;;;;;1.70;0.93;;;;;;;;;;6106311;23;20185;-89
2022/09/21 13:49:20;;;;;;;4.70;2.00;;;;;;;;;;6106551;23;20169;-89
2022/09/21 13:52:34;;;;;;;2.97;1.42;;;;;;;;;;6106465;23;20174;-89
2022/09/21 13:55:40;;;;;;;3.88;1.08;;;;;;;;;;6107448;23;20162;-88
2022/09/21 13:58:46;;;;;;;3.20;1.30;;;;;;;;;;6106145;23;20194;-90
2022/09/21 14:01:52;;;;;;;6.80;2.17;;;;;;;;;;6106145;23;20162;-89
2022/09/21 14:08:23;;;;;;;3.30;1.48;;;;;;;;;;6104268;23;20606;-90
2022/09/21 14:11:32;;;;;;;7.75;3.30;;;;;;;;;;6106026;23;20261;-89
2022/09/21 14:14:40;;;;;;;4.28;1.67;;;;;;;;;;6090553;23;20162;-89
2022/09/21 14:17:45;;;;;;;3.50;1.48;;;;;;;;;;6106035;23;20649;-89
2022/09/21 14:21:10;;;;;;;3.22;0.95;;;;;;;;;;6108604;23;20170;-90
2022/09/21 14:24:20;;;;;;;1.20;0.88;;;;;;;;;;6106743;23;20190;-89
2022/09/21 14:27:28;;;;;;;2.53;1.17;;;;;;;;;;6105081;23;20169;-89
2022/09/21 14:30:35;;;;;;;3.35;1.02;;;;;;;;;;6104193;23;20153;-90
2022/09/21 14:33:47;;;;;;;1.30;0.70;;;;;;;;;;6106045;23;20170;-90
2022/09/21 14:36:54;;;;;;;1.08;0.90;;;;;;;;;;6107623;23;20298;-89
2022/09/21 14:40:04;;;;;;;1.80;1.00;;;;;;;;;;6106979;23;20170;-88
2022/09/21 14:43:11;;;;;;;1.38;0.70;;;;;;;;;;6103824;23;20492;-90
2022/09/21 14:46:34;;;;;;;1.95;0.90;;;;;;;;;;6108557;23;20185;-89
2022/09/21 14:49:43;;;;;;;3.40;1.08;;;;;;;;;;6108942;23;20170;-89
2022/09/21 14:52:54;;;;;;;3.03;1.48;;;;;;;;;;6105915;23;20162;-89
2022/09/21 14:56:09;;;;;;;1.83;0.90;;;;;;;;;;6104194;23;20186;-88
2022/09/21 14:59:21;;;;;;;1.67;0.82;;;;;;;;;;6104185;23;20157;-88
2022/09/21 15:02:27;;;;;;;2.03;1.30;;;;;;;;;;6107720;23;20165;-89
2022/09/21 15:05:34;;;;;;;3.30;1.50;;;;;;;;;;6104396;23;20202;-88
2022/09/21 15:12:15;;;;;;;1.65;1.00;;;;;;;;;;6109232;23;20222;-89
2022/09/21 15:15:30;;;;;;;1.42;1.00;;;;;;;;;;6106440;23;20195;-89
2022/09/21 15:18:41;;;;;;;2.63;1.40;;;;;;;;;;6108953;23;20590;-87
2022/09/21 15:21:50;;;;;;;1.35;0.90;;;;;;;;;;6107479;23;20633;-88
2022/09/21 15:24:56;;;;;;;4.55;1.40;;;;;;;;;;6105174;23;20253;-89
2022/09/21 15:28:04;;;;;;;3.20;1.10;;;;;;;;;;6108555;23;20161;-87
2022/09/21 15:31:10;;;;;;;2.47;1.33;;;;;;;;;;6109259;23;20214;-89
2022/09/21 15:34:16;;;;;;;3.88;1.40;;;;;;;;;;6107126;23;20266;-89
2022/09/21 15:37:22;;;;;;;5.90;1.90;;;;;;;;;;6108341;23;20177;-89
2022/09/21 15:40:33;;;;;;;3.97;1.58;;;;;;;;;;6104946;23;20245;-90
2022/09/21 15:43:41;;;;;;;3.60;1.13;;;;;;;;;;6105697;23;20283;-88
2022/09/21 15:46:48;;;;;;;3.80;2.00;;;;;;;;;;6106168;23;20264;-90
2022/09/21 15:49:55;;;;;;;36.80;12.80;;;;;;;;;;6104437;23;20613;-88
2022/09/21 15:53:03;;;;;;;8.77;6.07;;;;;;;;;;6103808;23;20174;-88
2022/09/21 15:56:08;;;;;;;8.93;4.95;;;;;;;;;;6106932;23;20174;-87
2022/09/21 15:59:17;;;;;;;7.25;4.68;;;;;;;;;;6106099;23;20166;-89
2022/09/21 16:02:24;;;;;;;20.17;8.30;;;;;;;;;;6104509;23;20242;-88
2022/09/21 16:05:29;;;;;;;7.90;3.25;;;;;;;;;;6106317;23;20193;-89
2022/09/21 16:08:35;;;;;;;4.68;2.15;;;;;;;;;;6103579;23;20165;-88
2022/09/21 16:11:41;;;;;;;5.03;1.90;;;;;;;;;;6103383;23;20218;-88
2022/09/21 16:14:56;;;;;;;7.22;2.08;;;;;;;;;;6104759;23;20233;-88
2022/09/21 16:18:03;;;;;;;6.05;1.60;;;;;;;;;;6104082;23;20193;-88
2022/09/21 16:21:09;;;;;;;5.95;2.60;;;;;;;;;;6106612;23;20173;-88
2022/09/21 16:24:18;;;;;;;7.38;2.95;;;;;;;;;;6101756;23;20499;-87
2022/09/21 16:27:24;;;;;;;7.32;2.75;;;;;;;;;;6101834;23;20170;-88
2022/09/21 16:30:57;;;;;;;14.40;5.70;;;;;;;;;;6104276;23;20161;-88
2022/09/21 16:34:07;;;;;;;51.75;18.33;;;;;;;;;;6103952;23;20245;-89
2022/09/21 16:37:23;;;;;;;52.67;16.38;;;;;;;;;;6103397;23;20169;-90
2022/09/21 16:40:30;;;;;;;32.03;11.45;;;;;;;;;;6102839;23;20239;-90
2022/09/21 16:43:41;;;;;;;21.77;6.85;;;;;;;;;;6106577;23;20162;-88
2022/09/21 16:46:51;;;;;;;20.25;7.13;;;;;;;;;;6106603;23;20282;-91
2022/09/21 16:50:00;;;;;;;10.68;4.15;;;;;;;;;;6105739;23;20233;-89
2022/09/21 16:53:05;;;;;;;6.43;2.83;;;;;;;;;;6104225;23;20217;-90
2022/09/21 16:56:13;;;;;;;7.00;2.72;;;;;;;;;;6103935;23;20178;-85
2022/09/21 16:59:22;;;;;;;7.00;2.97;;;;;;;;;;6104596;23;20158;-88
2022/09/21 17:02:30;;;;;;;13.60;6.80;;;;;;;;;;6104524;23;20547;-88
2022/09/21 17:05:35;;;;;;;10.88;5.03;;;;;;;;;;6103363;23;20663;-89
2022/09/21 17:08:40;;;;;;;7.88;2.55;;;;;;;;;;6102575;23;20165;-89
2022/09/21 17:11:46;;;;;;;12.18;4.57;;;;;;;;;;6104845;23;20158;-89
2022/09/21 17:14:53;;;;;;;6.00;2.72;;;;;;;;;;6103751;23;20163;-89
2022/09/21 17:17:59;;;;;;;5.53;2.60;;;;;;;;;;6103632;23;20194;-88
2022/09/21 17:21:04;;;;;;;5.40;2.25;;;;;;;;;;6103531;23;20174;-89
2022/09/21 17:24:10;;;;;;;6.35;2.63;;;;;;;;;;6104343;23;20237;-89
2022/09/21 17:27:16;;;;;;;10.40;2.10;;;;;;;;;;6102633;23;20611;-89
2022/09/21 17:30:22;;;;;;;4.50;2.63;;;;;;;;;;6104028;23;20173;-90
2022/09/21 17:33:29;;;;;;;6.82;3.05;;;;;;;;;;6103250;23;20231;-89
2022/09/21 17:36:39;;;;;;;11.55;4.95;;;;;;;;;;6104556;23;20302;-87
2022/09/21 17:39:44;;;;;;;46.28;21.02;;;;;;;;;;6104699;23;20170;-91
2022/09/21 17:42:49;;;;;;;8.15;3.35;;;;;;;;;;6102366;23;20182;-87
2022/09/21 17:45:59;;;;;;;21.70;12.48;;;;;;;;;;6104641;23;20182;-89
2022/09/21 17:49:19;;;;;;;6.38;3.35;;;;;;;;;;6103684;23;20173;-90
2022/09/21 17:55:53;;;;;;;6.82;2.78;;;;;;;;;;6103815;23;20174;-90
2022/09/21 17:59:01;;;;;;;17.20;6.10;;;;;;;;;;6102392;23;20170;-88
2022/09/21 18:02:11;;;;;;;8.95;4.93;;;;;;;;;;6103768;23;20162;-89
2022/09/21 18:05:21;;;;;;;9.63;4.13;;;;;;;;;;6103538;23;20606;-90
2022/09/21 18:08:27;;;;;;;9.18;4.00;;;;;;;;;;6104665;23;20170;-89
2022/09/21 18:11:41;;;;;;;8.05;4.13;;;;;;;;;;6101726;23;20254;-89
2022/09/21 18:14:52;;;;;;;19.25;9.40;;;;;;;;;;6102524;23;20166;-88
2022/09/21 18:18:03;;;;;;;24.85;12.95;;;;;;;;;;6105549;23;20265;-89
2022/09/21 18:21:14;;;;;;;19.88;9.13;;;;;;;;;;6105477;23;20171;-89
2022/09/21 18:24:22;;;;;;;15.90;7.50;;;;;;;;;;6104317;23;20170;-91
2022/09/21 18:27:28;;;;;;;18.73;5.85;;;;;;;;;;6103644;23;20194;-91
2022/09/21 18:30:34;;;;;;;15.43;7.03;;;;;;;;;;6104432;23;20182;-89
2022/09/21 18:33:42;;;;;;;23.35;9.35;;;;;;;;;;6108202;23;20173;-90
2022/09/21 18:36:52;;;;;;;23.05;13.68;;;;;;;;;;6107149;23;20177;-88
2022/09/21 18:40:04;;;;;;;8.07;4.45;;;;;;;;;;6107405;23;20294;-89
2022/09/21 18:43:21;;;;;;;19.70;10.40;;;;;;;;;;6106653;23;20268;-88
2022/09/21 18:46:29;;;;;;;18.55;10.10;;;;;;;;;;6108987;23;20205;-88
2022/09/21 18:49:46;;;;;;;14.10;6.07;;;;;;;;;;6110030;23;20169;-87
2022/09/21 18:52:58;;;;;;;19.38;11.05;;;;;;;;;;6107137;23;20190;-88
2022/09/21 18:56:04;;;;;;;11.23;6.25;;;;;;;;;;6107727;23;20178;-87
2022/09/21 18:59:12;;;;;;;9.52;4.53;;;;;;;;;;6107802;23;20161;-88
2022/09/21 19:02:19;;;;;;;16.35;8.90;;;;;;;;;;6106767;23;20177;-88